Time;durP1;ratioP1;P1;durP2;ratioP2;P2;SDS_P1;SDS_P2;PMS_P1;PMS_P2;Temp;Humidity;BMP_temperature;BMP_pressure;BME280_temperature;BME280_humidity;BME280_pressure;Samples;Min_cycle;Max_cycle;Signal;HPM_P1;HPM_P2
2024/02/04 00:01:33;;;;;;;18.05;16.45;;;;;;;11.95;100.00;102317.38;5229558;28;20037;-75
2024/02/04 00:04:05;;;;;;;18.52;16.83;;;;;;;11.88;100.00;102307.25;5239755;28;21027;-78
2024/02/04 00:06:37;;;;;;;19.45;17.75;;;;;;;11.98;100.00;102322.41;5240707;28;20041;-77
2024/02/04 00:09:09;;;;;;;18.52;16.85;;;;;;;12.03;100.00;102317.69;5241321;28;20490;-75
2024/02/04 00:11:41;;;;;;;18.98;17.27;;;;;;;11.78;100.00;102277.28;5239339;28;20033;-77
2024/02/04 00:14:13;;;;;;;19.57;17.77;;;;;;;12.06;100.00;102317.47;5239241;28;20029;-77
2024/02/04 00:16:45;;;;;;;19.58;17.80;;;;;;;12.02;100.00;102306.34;5239675;28;20048;-77
2024/02/04 00:19:17;;;;;;;18.85;17.05;;;;;;;12.00;100.00;102312.63;5240782;28;20033;-77
2024/02/04 00:21:49;;;;;;;18.83;17.10;;;;;;;11.99;100.00;102306.53;5242813;28;20528;-76
2024/02/04 00:24:21;;;;;;;18.17;16.55;;;;;;;11.98;100.00;102309.28;5242555;28;20444;-76
2024/02/04 00:26:53;;;;;;;18.33;16.70;;;;;;;12.01;100.00;102316.94;5241212;28;20068;-78
2024/02/04 00:29:25;;;;;;;16.67;15.27;;;;;;;12.07;100.00;102313.91;5245734;28;20040;-76
2024/02/04 00:31:57;;;;;;;17.02;15.25;;;;;;;12.08;100.00;102321.66;5242114;28;20033;-77
2024/02/04 00:34:28;;;;;;;16.10;14.73;;;;;;;12.06;100.00;102325.38;5249065;28;20056;-78
2024/02/04 00:37:00;;;;;;;16.35;14.80;;;;;;;12.08;100.00;102313.78;5244386;28;20025;-78
2024/02/04 00:39:32;;;;;;;14.60;13.23;;;;;;;12.16;100.00;102321.19;5244569;28;20040;-78
2024/02/04 00:42:04;;;;;;;13.63;12.43;;;;;;;12.21;100.00;102319.06;5244987;28;20032;-77
2024/02/04 00:44:36;;;;;;;12.93;11.70;;;;;;;12.15;100.00;102314.22;5243597;28;20487;-77
2024/02/04 00:47:08;;;;;;;11.75;10.65;;;;;;;12.12;100.00;102312.66;5243989;28;20033;-75
2024/02/04 00:49:40;;;;;;;11.32;10.43;;;;;;;12.17;100.00;102313.19;5241400;28;20403;-77
2024/02/04 00:52:12;;;;;;;9.38;8.57;;;;;;;12.20;100.00;102322.66;5243985;28;20143;-77
2024/02/04 00:54:44;;;;;;;9.65;8.75;;;;;;;12.22;100.00;102323.38;5242606;28;20041;-78
2024/02/04 00:57:16;;;;;;;9.13;8.32;;;;;;;12.13;100.00;102313.50;5246969;28;20039;-78
2024/02/04 00:59:48;;;;;;;8.30;7.60;;;;;;;12.16;100.00;102323.81;5244308;28;20482;-76
2024/02/04 01:02:19;;;;;;;8.68;7.88;;;;;;;12.11;100.00;102326.72;5239923;28;20056;-78
2024/02/04 01:04:51;;;;;;;8.48;7.57;;;;;;;12.18;100.00;102324.53;5242211;28;20049;-75
2024/02/04 01:07:23;;;;;;;9.50;8.43;;;;;;;12.14;100.00;102325.69;5241249;28;20541;-77
2024/02/04 01:09:55;;;;;;;8.35;7.55;;;;;;;12.16;100.00;102322.00;5240699;28;20039;-77
2024/02/04 01:12:27;;;;;;;8.50;7.68;;;;;;;12.16;100.00;102313.28;5241675;28;20497;-76
2024/02/04 01:14:59;;;;;;;9.77;8.77;;;;;;;12.31;100.00;102301.75;5245242;28;20451;-75
2024/02/04 01:17:33;;;;;;;9.13;8.23;;;;;;;12.16;100.00;102308.03;5237791;28;20041;-77
2024/02/04 01:20:05;;;;;;;8.70;7.90;;;;;;;12.10;100.00;102298.78;5238668;28;20041;-75
2024/02/04 01:22:37;;;;;;;8.88;8.07;;;;;;;12.22;100.00;102302.34;5238812;28;20059;-77
2024/02/04 01:25:09;;;;;;;9.25;8.13;;;;;;;12.17;100.00;102304.47;5239127;28;20029;-77
2024/02/04 01:27:41;;;;;;;8.93;8.02;;;;;;;12.12;100.00;102301.28;5241289;28;20033;-77
2024/02/04 01:30:13;;;;;;;8.18;7.43;;;;;;;12.20;100.00;102304.25;5238417;28;20383;-75
2024/02/04 01:32:46;;;;;;;8.88;7.97;;;;;;;12.17;100.00;102302.66;5243086;28;20044;-78
2024/02/04 01:35:18;;;;;;;8.60;7.80;;;;;;;12.23;100.00;102306.66;5240072;28;20022;-77
2024/02/04 01:37:49;;;;;;;9.75;8.35;;;;;;;12.21;100.00;102305.09;5236930;28;20037;-77
2024/02/04 01:40:21;;;;;;;9.93;8.30;;;;;;;12.22;100.00;102293.63;5245551;28;20071;-77
2024/02/04 01:42:53;;;;;;;8.88;7.68;;;;;;;12.26;100.00;102298.56;5241402;28;20034;-77
2024/02/04 01:45:25;;;;;;;9.95;8.40;;;;;;;12.29;100.00;102300.16;5240188;28;20060;-75
2024/02/04 01:47:57;;;;;;;11.45;8.73;;;;;;;12.25;100.00;102288.16;5239268;28;20037;-77
2024/02/04 01:50:29;;;;;;;11.18;9.48;;;;;;;12.19;100.00;102302.56;5242321;28;20068;-76
2024/02/04 01:53:02;;;;;;;16.75;9.18;;;;;;;12.27;100.00;102304.66;5239920;28;20025;-77
2024/02/04 01:55:33;;;;;;;10.23;8.70;;;;;;;12.27;100.00;102305.50;5236433;28;20029;-77
2024/02/04 01:58:06;;;;;;;11.35;8.30;;;;;;;12.24;100.00;102307.53;5238747;28;20032;-75
2024/02/04 02:00:38;;;;;;;11.83;8.70;;;;;;;12.23;100.00;102311.91;5236284;28;20033;-77
2024/02/04 02:03:11;;;;;;;10.43;8.93;;;;;;;12.16;100.00;102315.94;5237226;28;20272;-77
2024/02/04 02:05:43;;;;;;;;;;;;;;;12.69;100.00;102308.75;5238068;28;20052;-77
2024/02/04 02:08:15;;;;;;;11.50;8.90;;;;;;;12.21;100.00;102311.19;5232120;28;19920;-77
2024/02/04 02:10:48;;;;;;;13.67;9.10;;;;;;;12.20;100.00;102311.28;5244491;28;20036;-77
2024/02/04 02:13:27;;;;;;;13.80;10.02;;;;;;;12.22;100.00;102306.78;5246384;28;20056;-75
2024/02/04 02:16:07;;;;;;;15.63;9.90;;;;;;;12.16;100.00;102308.88;5235500;28;20295;-77
2024/02/04 02:19:03;;;;;;;15.65;10.90;;;;;;;12.32;100.00;102299.94;5239296;28;20072;-77
2024/02/04 02:21:56;;;;;;;19.33;11.23;;;;;;;12.30;100.00;102304.44;5239285;28;20048;-77
2024/02/04 02:24:31;;;;;;;18.98;10.23;;;;;;;12.13;100.00;102301.19;5239726;28;20029;-77
2024/02/04 02:27:05;;;;;;;13.25;10.43;;;;;;;12.08;100.00;102300.66;5235332;28;20032;-77
2024/02/04 02:29:37;;;;;;;21.73;11.18;;;;;;;12.04;100.00;102290.47;5241204;28;20036;-77
2024/02/04 02:32:10;;;;;;;15.90;11.02;;;;;;;12.07;100.00;102308.66;5239141;28;20044;-77
2024/02/04 02:34:42;;;;;;;19.25;11.15;;;;;;;12.08;100.00;102311.16;5234917;28;20041;-76
2024/02/04 02:37:28;;;;;;;14.40;9.93;;;;;;;12.24;100.00;102303.09;5237364;28;20032;-77
2024/02/04 02:40:15;;;;;;;16.00;10.80;;;;;;;12.20;100.00;102298.13;5238407;28;20632;-77
2024/02/04 02:42:47;;;;;;;13.45;9.52;;;;;;;12.07;100.00;102300.78;5239418;28;20045;-74
2024/02/04 02:45:22;;;;;;;16.35;11.10;;;;;;;12.14;100.00;102295.00;5237194;28;20037;-77
2024/02/04 02:47:55;;;;;;;17.02;9.63;;;;;;;12.00;100.00;102297.72;5235219;28;20469;-76
2024/02/04 02:50:28;;;;;;;13.48;9.80;;;;;;;12.04;100.00;102298.34;5237491;28;20051;-75
2024/02/04 02:52:59;;;;;;;16.23;10.68;;;;;;;12.01;100.00;102301.16;5236059;28;20041;-77
2024/02/04 02:55:31;;;;;;;20.30;10.93;;;;;;;11.90;100.00;102302.75;5236796;28;20493;-75
2024/02/04 02:58:03;;;;;;;18.10;9.90;;;;;;;11.89;100.00;102301.09;5240638;28;20042;-76
2024/02/04 03:00:35;;;;;;;16.95;9.68;;;;;;;11.80;100.00;102277.19;5237821;28;20036;-77
2024/02/04 03:03:07;;;;;;;15.52;9.45;;;;;;;11.89;100.00;102298.47;5234139;28;20030;-77
2024/02/04 03:05:39;;;;;;;14.20;9.55;;;;;;;11.91;100.00;102296.56;5239898;28;20742;-76
2024/02/04 03:08:11;;;;;;;14.00;8.68;;;;;;;11.97;100.00;102297.06;5238946;28;20033;-77
2024/02/04 03:10:43;;;;;;;14.77;9.50;;;;;;;11.97;100.00;102292.69;5236516;28;20034;-77
2024/02/04 03:13:15;;;;;;;17.08;9.65;;;;;;;11.63;100.00;102284.41;5233635;28;20033;-77
2024/02/04 03:15:47;;;;;;;13.77;8.95;;;;;;;11.74;100.00;102288.06;5237885;28;20021;-75
2024/02/04 03:18:19;;;;;;;14.73;9.65;;;;;;;11.65;100.00;102268.53;5231753;28;20029;-77
2024/02/04 03:20:50;;;;;;;15.32;9.05;;;;;;;11.63;100.00;102288.78;5238437;28;20030;-75
2024/02/04 03:23:22;;;;;;;15.23;8.90;;;;;;;11.73;100.00;102307.41;5232160;28;20500;-75
2024/02/04 03:25:54;;;;;;;20.15;9.98;;;;;;;11.72;100.00;102301.31;5238905;28;20037;-77
2024/02/04 03:28:26;;;;;;;17.80;8.68;;;;;;;11.72;100.00;102290.81;5234282;28;20052;-77
2024/02/04 03:30:58;;;;;;;16.35;9.05;;;;;;;11.68;100.00;102279.69;5237725;28;20037;-77
2024/02/04 03:33:30;;;;;;;14.82;8.80;;;;;;;11.68;100.00;102270.97;5243315;28;20039;-75
2024/02/04 03:36:02;;;;;;;19.83;10.32;;;;;;;11.74;100.00;102278.41;5237338;28;20430;-76
2024/02/04 03:38:35;;;;;;;14.68;9.57;;;;;;;11.71;100.00;102273.41;5238158;28;20037;-77
2024/02/04 03:41:07;;;;;;;14.85;9.65;;;;;;;11.80;100.00;102287.69;5237447;28;20033;-77
2024/02/04 03:43:38;;;;;;;16.75;9.90;;;;;;;11.76;100.00;102281.78;5239705;28;20040;-77
2024/02/04 03:46:16;;;;;;;16.23;9.32;;;;;;;11.84;100.00;102281.31;5240538;28;20475;-77
2024/02/04 03:48:48;;;;;;;15.23;10.38;;;;;;;11.72;100.00;102280.31;5234508;28;20048;-77
2024/02/04 03:51:20;;;;;;;16.10;9.60;;;;;;;11.75;100.00;102274.88;5238770;28;20037;-77
2024/02/04 03:53:52;;;;;;;16.15;11.10;;;;;;;11.78;100.00;102285.16;5234612;28;20041;-77
2024/02/04 03:56:24;;;;;;;17.65;10.43;;;;;;;11.78;100.00;102274.66;5238956;28;20031;-77
2024/02/04 03:58:56;;;;;;;17.80;10.48;;;;;;;11.79;100.00;102278.97;5235157;28;20038;-77
2024/02/04 04:01:28;;;;;;;13.40;10.27;;;;;;;11.81;100.00;102270.97;5235269;28;20467;-77
2024/02/04 04:04:00;;;;;;;15.27;9.68;;;;;;;11.78;100.00;102286.94;5241194;28;20049;-76
2024/02/04 04:06:32;;;;;;;16.17;9.88;;;;;;;11.69;100.00;102273.47;5231722;28;20038;-77
2024/02/04 04:09:04;;;;;;;20.05;9.60;;;;;;;11.73;100.00;102286.41;5235389;28;20513;-76
2024/02/04 04:11:36;;;;;;;18.70;10.40;;;;;;;11.75;100.00;102279.28;5236371;28;20108;-77
2024/02/04 04:14:08;;;;;;;11.55;8.80;;;;;;;11.77;100.00;102283.47;5233058;28;20036;-76
2024/02/04 04:16:40;;;;;;;14.27;9.20;;;;;;;11.73;100.00;102274.13;5238273;28;20473;-75
2024/02/04 04:19:12;;;;;;;15.82;9.20;;;;;;;11.74;100.00;102281.03;5237740;28;20045;-75
2024/02/04 04:21:44;;;;;;;16.92;8.95;;;;;;;11.77;100.00;102290.50;5241028;28;20446;-79
2024/02/04 04:24:19;;;;;;;13.02;9.20;;;;;;;11.75;100.00;102288.00;5242008;28;20036;-75
2024/02/04 04:26:51;;;;;;;19.90;10.20;;;;;;;11.76;100.00;102288.84;5242821;28;20567;-77
2024/02/04 04:29:23;;;;;;;12.88;8.23;;;;;;;11.76;100.00;102284.41;5240094;28;20043;-76
2024/02/04 04:31:55;;;;;;;15.75;8.82;;;;;;;11.60;100.00;102258.34;5242545;28;20044;-75
2024/02/04 04:34:27;;;;;;;14.45;8.68;;;;;;;11.73;100.00;102274.13;5235439;28;20033;-78
2024/02/04 04:36:59;;;;;;;15.73;8.55;;;;;;;11.76;100.00;102259.94;5242814;28;20498;-75
2024/02/04 04:39:30;;;;;;;14.85;8.63;;;;;;;11.74;100.00;102249.53;5241695;28;20048;-74
2024/02/04 04:42:03;;;;;;;16.83;8.68;;;;;;;11.78;100.00;102240.53;5236402;28;20036;-74
2024/02/04 04:44:34;;;;;;;13.00;8.40;;;;;;;11.80;100.00;102230.75;5240078;28;20029;-76
2024/02/04 04:47:06;;;;;;;19.02;8.98;;;;;;;11.80;100.00;102235.16;5243182;28;20064;-75
2024/02/04 04:49:38;;;;;;;18.40;8.80;;;;;;;11.77;100.00;102225.69;5240503;28;20029;-78
2024/02/04 04:52:10;;;;;;;15.73;9.43;;;;;;;11.81;100.00;102236.84;5240902;28;20044;-76
2024/02/04 04:54:42;;;;;;;15.85;8.93;;;;;;;11.82;100.00;102228.88;5242766;28;20392;-76
2024/02/04 04:57:15;;;;;;;13.73;8.93;;;;;;;11.78;100.00;102240.53;5245241;28;20029;-76
2024/02/04 04:59:46;;;;;;;17.10;9.40;;;;;;;11.82;100.00;102246.38;5238577;28;20037;-75
2024/02/04 05:02:18;;;;;;;15.35;8.68;;;;;;;11.81;100.00;102234.22;5241674;28;20291;-79
2024/02/04 05:04:50;;;;;;;16.38;9.80;;;;;;;11.87;100.00;102242.56;5241619;28;20067;-77
2024/02/04 05:07:22;;;;;;;18.17;9.68;;;;;;;11.89;100.00;102242.44;5239688;28;20029;-78
2024/02/04 05:09:54;;;;;;;14.98;8.43;;;;;;;11.88;100.00;102246.84;5237983;28;20040;-74
2024/02/04 05:12:26;;;;;;;16.40;8.52;;;;;;;11.91;100.00;102240.56;5242928;28;20036;-74
2024/02/04 05:14:58;;;;;;;15.43;8.30;;;;;;;11.75;100.00;102209.22;5241428;28;20390;-75
2024/02/04 05:17:30;;;;;;;16.77;9.02;;;;;;;11.95;100.00;102238.56;5243892;28;20032;-75
2024/02/04 05:20:06;;;;;;;15.25;8.93;;;;;;;11.87;100.00;102234.69;5238341;28;20044;-74
2024/02/04 05:22:38;;;;;;;12.98;9.38;;;;;;;11.85;100.00;102226.06;5241784;28;20025;-79
2024/02/04 05:25:10;;;;;;;13.13;8.82;;;;;;;11.95;100.00;102230.69;5233743;28;20035;-78
2024/02/04 05:27:42;;;;;;;13.75;8.95;;;;;;;11.84;100.00;102213.03;5241184;28;20046;-74
2024/02/04 05:30:15;;;;;;;12.50;9.55;;;;;;;11.90;100.00;102226.59;5235589;28;20056;-80
2024/02/04 05:32:47;;;;;;;12.73;9.70;;;;;;;11.92;100.00;102239.63;5237999;28;20033;-74
2024/02/04 05:35:19;;;;;;;12.45;9.38;;;;;;;11.99;100.00;102242.66;5240915;28;20439;-76
2024/02/04 05:37:51;;;;;;;13.95;9.15;;;;;;;11.99;100.00;102247.91;5247984;28;20029;-75
2024/02/04 05:40:23;;;;;;;16.45;9.75;;;;;;;11.99;100.00;102230.38;5238047;28;20495;-76
2024/02/04 05:42:55;;;;;;;14.10;9.93;;;;;;;11.88;100.00;102231.09;5239744;28;20040;-75
2024/02/04 05:45:27;;;;;;;14.32;9.40;;;;;;;11.80;100.00;102222.03;5235306;28;20043;-75
2024/02/04 05:47:59;;;;;;;13.20;9.40;;;;;;;11.88;100.00;102232.88;5237145;28;20049;-75
2024/02/04 05:50:31;;;;;;;18.08;10.13;;;;;;;11.93;100.00;102238.66;5240083;28;20025;-75
2024/02/04 05:53:03;;;;;;;17.10;9.85;;;;;;;11.91;100.00;102230.91;5240772;28;20041;-75
2024/02/04 05:55:34;;;;;;;13.48;9.85;;;;;;;11.91;100.00;102224.81;5237704;28;20037;-76
2024/02/04 05:58:06;;;;;;;13.15;9.13;;;;;;;11.84;100.00;102219.13;5239341;28;20032;-78
2024/02/04 06:00:38;;;;;;;12.27;8.65;;;;;;;11.92;100.00;102229.94;5238102;28;20053;-75
2024/02/04 06:03:10;;;;;;;14.23;9.48;;;;;;;11.83;100.00;102206.94;5242878;28;20028;-75
2024/02/04 06:05:42;;;;;;;11.88;8.45;;;;;;;11.87;100.00;102218.09;5248459;28;20052;-75
2024/02/04 06:08:14;;;;;;;11.82;7.80;;;;;;;11.93;100.00;102213.25;5238332;28;20597;-75
2024/02/04 06:10:46;;;;;;;9.23;8.02;;;;;;;11.93;100.00;102215.03;5240899;28;20400;-75
2024/02/04 06:13:18;;;;;;;12.60;8.23;;;;;;;11.97;100.00;102223.53;5243021;28;20036;-75
2024/02/04 06:15:50;;;;;;;13.80;8.15;;;;;;;11.97;100.00;102213.03;5240207;28;20032;-75
2024/02/04 06:18:22;;;;;;;13.95;9.20;;;;;;;11.79;100.00;102183.59;5235261;28;20044;-75
2024/02/04 06:20:53;;;;;;;10.27;7.07;;;;;;;11.95;100.00;102207.06;5237246;28;20372;-76
2024/02/04 06:23:25;;;;;;;11.13;7.38;;;;;;;11.95;100.00;102212.31;5236698;28;20067;-77
2024/02/04 06:25:57;;;;;;;11.75;7.47;;;;;;;11.92;100.00;102205.47;5240374;28;20040;-76
2024/02/04 06:28:29;;;;;;;11.68;7.80;;;;;;;11.95;100.00;102210.50;5240298;28;20032;-75
2024/02/04 06:31:02;;;;;;;9.90;6.90;;;;;;;11.92;100.00;102205.47;5238310;28;20041;-76
2024/02/04 06:33:34;;;;;;;11.68;7.45;;;;;;;11.87;100.00;102197.91;5238458;28;20025;-75
2024/02/04 06:36:10;;;;;;;11.70;7.28;;;;;;;11.99;100.00;102201.47;5239289;28;20391;-75
2024/02/04 06:38:42;;;;;;;11.07;8.00;;;;;;;11.95;100.00;102209.69;5235499;28;20414;-75
2024/02/04 06:41:14;;;;;;;8.85;6.95;;;;;;;11.90;100.00;102202.97;5243399;28;20045;-79
2024/02/04 06:43:46;;;;;;;9.23;7.05;;;;;;;11.80;100.00;102186.13;5237280;28;20044;-76
2024/02/04 06:46:27;;;;;;;9.43;8.40;;;;;;;11.93;100.00;102184.38;5237816;28;20045;-75
2024/02/04 06:48:59;;;;;;;9.60;8.70;;;;;;;11.83;100.00;102191.19;5232675;28;20498;-75
2024/02/04 06:51:31;;;;;;;11.63;9.52;;;;;;;11.76;100.00;102187.28;5243168;28;20083;-76
2024/02/04 06:54:03;;;;;;;11.68;10.48;;;;;;;11.80;100.00;102203.66;5237387;28;20490;-76
2024/02/04 06:56:36;;;;;;;13.95;11.05;;;;;;;11.82;100.00;102197.38;5244437;28;20463;-77
2024/02/04 06:59:08;;;;;;;11.40;10.02;;;;;;;11.80;100.00;102195.78;5235779;28;20029;-75
2024/02/04 07:01:40;;;;;;;13.23;11.23;;;;;;;11.76;100.00;102189.91;5238049;28;20036;-77
2024/02/04 07:04:12;;;;;;;13.15;11.38;;;;;;;11.75;100.00;102201.34;5235890;28;20045;-75
2024/02/04 07:06:44;;;;;;;14.07;11.32;;;;;;;11.76;100.00;102205.66;5236715;28;20045;-76
2024/02/04 07:09:16;;;;;;;13.80;12.40;;;;;;;11.84;100.00;102211.25;5235521;28;20044;-75
2024/02/04 07:11:48;;;;;;;12.95;11.65;;;;;;;11.81;100.00;102207.97;5235961;28;20445;-75
2024/02/04 07:14:20;;;;;;;12.80;11.30;;;;;;;11.79;100.00;102200.19;5241726;28;20029;-75
2024/02/04 07:16:52;;;;;;;12.53;11.20;;;;;;;11.87;100.00;102211.03;5236822;28;20029;-75
2024/02/04 07:19:24;;;;;;;12.40;11.13;;;;;;;11.85;100.00;102202.41;5229123;28;20052;-75
2024/02/04 07:21:56;;;;;;;13.43;11.65;;;;;;;11.83;100.00;102206.09;5238508;28;20026;-75
2024/02/04 07:24:28;;;;;;;12.93;11.40;;;;;;;11.84;100.00;102200.75;5236866;28;20061;-76
2024/02/04 07:27:00;;;;;;;15.27;13.23;;;;;;;11.81;100.00;102210.59;5238671;28;20403;-76
2024/02/04 07:29:32;;;;;;;13.98;12.48;;;;;;;11.84;100.00;102203.38;5234785;28;20049;-75
2024/02/04 07:32:04;;;;;;;16.05;12.35;;;;;;;11.80;100.00;102193.16;5234345;28;20041;-76
2024/02/04 07:34:36;;;;;;;18.45;12.70;;;;;;;11.78;100.00;102192.41;5238680;28;20033;-76
2024/02/04 07:37:08;;;;;;;17.98;12.65;;;;;;;11.84;100.00;102194.66;5231962;28;20036;-75
2024/02/04 07:39:40;;;;;;;14.30;12.65;;;;;;;11.54;100.00;102147.69;5236214;28;20029;-78
2024/02/04 07:42:12;;;;;;;16.10;12.98;;;;;;;11.83;100.00;102195.59;5237474;28;20393;-75
2024/02/04 07:44:44;;;;;;;14.85;12.25;;;;;;;11.88;100.00;102191.72;5243185;28;20483;-77
2024/02/04 07:47:17;;;;;;;15.02;12.85;;;;;;;11.85;100.00;102194.53;5243598;28;20032;-75
2024/02/04 07:49:49;;;;;;;14.27;12.50;;;;;;;11.79;100.00;102186.22;5239676;28;20029;-76
2024/02/04 07:52:21;;;;;;;17.05;12.43;;;;;;;11.79;100.00;102209.88;5241309;28;20041;-78
2024/02/04 07:54:53;;;;;;;16.13;12.63;;;;;;;11.78;100.00;102195.91;5241765;28;20040;-75
2024/02/04 07:57:25;;;;;;;14.10;12.60;;;;;;;11.84;100.00;102203.38;5243144;28;20026;-75
2024/02/04 07:59:57;;;;;;;15.82;11.40;;;;;;;11.78;100.00;102185.41;5235878;28;20039;-75
2024/02/04 08:02:29;;;;;;;13.70;11.95;;;;;;;11.88;100.00;102198.75;5240979;28;20407;-75
2024/02/04 08:05:01;;;;;;;14.23;11.98;;;;;;;11.87;100.00;102200.53;5239537;28;20048;-75
2024/02/04 08:07:33;;;;;;;12.93;11.18;;;;;;;11.77;100.00;102181.06;5240255;28;20036;-75
2024/02/04 08:10:05;;;;;;;13.45;11.80;;;;;;;11.80;100.00;102190.53;5241523;28;20036;-75
2024/02/04 08:12:37;;;;;;;15.60;12.05;;;;;;;11.82;100.00;102186.88;5239335;28;20041;-76
2024/02/04 08:15:09;;;;;;;13.25;11.85;;;;;;;11.86;100.00;102177.88;5236094;28;20037;-77
2024/02/04 08:17:41;;;;;;;13.60;12.23;;;;;;;11.84;100.00;102174.50;5241808;28;20029;-75
2024/02/04 08:20:13;;;;;;;13.25;11.73;;;;;;;11.82;100.00;102149.25;5238380;28;20483;-76
2024/02/04 08:22:45;;;;;;;14.63;13.02;;;;;;;11.88;100.00;102169.88;5235182;28;20508;-74
2024/02/04 08:25:17;;;;;;;14.73;13.23;;;;;;;11.89;100.00;102155.78;5240042;28;20519;-77
2024/02/04 08:27:49;;;;;;;14.95;13.00;;;;;;;11.91;100.00;102173.13;5236941;28;20037;-77
2024/02/04 08:30:21;;;;;;;14.88;13.38;;;;;;;11.82;100.00;102150.09;5243072;28;20040;-77
2024/02/04 08:32:52;;;;;;;15.20;13.60;;;;;;;11.86;100.00;102166.53;5243128;28;20386;-77
2024/02/04 08:35:24;;;;;;;15.52;13.93;;;;;;;11.94;100.00;102177.31;5239057;28;20033;-75
2024/02/04 08:37:56;;;;;;;18.20;13.70;;;;;;;11.88;100.00;102168.06;5238178;28;20029;-78
2024/02/04 08:40:28;;;;;;;13.77;12.32;;;;;;;11.88;100.00;102167.25;5242798;28;20521;-75
2024/02/04 08:43:00;;;;;;;15.98;13.13;;;;;;;11.91;100.00;102194.13;5241437;28;20036;-75
2024/02/04 08:45:32;;;;;;;15.02;12.45;;;;;;;11.97;100.00;102192.00;5239696;28;20029;-75
2024/02/04 08:48:04;;;;;;;14.13;12.15;;;;;;;11.99;100.00;102187.50;5241612;28;20032;-76
2024/02/04 08:50:36;;;;;;;13.45;11.05;;;;;;;11.94;100.00;102177.31;5241892;28;20033;-75
2024/02/04 08:53:08;;;;;;;13.48;11.43;;;;;;;11.93;100.00;102187.00;5240194;28;20035;-75
2024/02/04 08:55:40;;;;;;;13.70;11.07;;;;;;;11.99;100.00;102192.75;5240785;28;20030;-78
2024/02/04 08:58:12;;;;;;;11.65;10.45;;;;;;;12.06;100.00;102201.91;5242510;28;20028;-75
2024/02/04 09:00:44;;;;;;;12.15;10.13;;;;;;;12.03;100.00;102196.84;5227187;28;20025;-79
2024/02/04 09:03:17;;;;;;;;;;;;;;;12.65;100.00;102202.06;5239013;28;20056;-75
2024/02/04 09:05:49;;;;;;;13.70;9.98;;;;;;;12.16;100.00;102202.94;5238012;28;20043;-76
2024/02/04 09:08:21;;;;;;;11.88;9.68;;;;;;;12.14;100.00;102210.09;5238862;28;20038;-76
2024/02/04 09:10:53;;;;;;;11.07;9.98;;;;;;;12.16;100.00;102208.22;5237910;28;20080;-77
2024/02/04 09:13:25;;;;;;;11.50;10.02;;;;;;;12.17;100.00;102208.09;5238297;28;20110;-76
2024/02/04 09:15:57;;;;;;;10.82;9.73;;;;;;;12.19;100.00;102197.47;5240856;28;20636;-78
2024/02/04 09:18:28;;;;;;;10.90;9.80;;;;;;;12.17;100.00;102209.88;5239884;28;20037;-78
2024/02/04 09:21:01;;;;;;;12.52;10.32;;;;;;;12.16;100.00;102195.91;5240567;28;20028;-75
2024/02/04 09:23:33;;;;;;;10.70;9.52;;;;;;;12.17;100.00;102199.38;5243670;28;20037;-78
2024/02/04 09:26:04;;;;;;;11.48;10.27;;;;;;;12.14;100.00;102183.81;5239283;28;20043;-77
2024/02/04 09:28:37;;;;;;;11.13;9.48;;;;;;;12.18;100.00;102196.63;5241900;28;20034;-75
2024/02/04 09:31:09;;;;;;;11.55;9.00;;;;;;;12.25;100.00;102194.41;5237659;28;20073;-76
2024/02/04 09:33:41;;;;;;;11.43;10.00;;;;;;;12.24;100.00;102189.28;5238235;28;20025;-75
2024/02/04 09:36:13;;;;;;;11.70;10.32;;;;;;;12.28;100.00;102196.81;5237026;28;20033;-75
2024/02/04 09:38:45;;;;;;;11.27;10.07;;;;;;;12.28;100.00;102181.06;5239326;28;20032;-76
2024/02/04 09:41:17;;;;;;;11.45;10.25;;;;;;;12.27;100.00;102183.78;5237498;28;20035;-77
2024/02/04 09:43:50;;;;;;;11.65;10.50;;;;;;;12.24;100.00;102179.59;5240260;28;20042;-75
2024/02/04 09:46:22;;;;;;;;;;;;;;;12.82;100.00;102191.19;5241236;28;20047;-78
2024/02/04 09:48:55;;;;;;;12.00;10.80;;;;;;;12.33;100.00;102181.56;5236745;28;19928;-78
2024/02/04 09:51:28;;;;;;;11.82;10.63;;;;;;;12.24;100.00;102176.97;5233913;28;20049;-75
2024/02/04 09:54:06;;;;;;;11.57;10.50;;;;;;;12.28;100.00;102180.22;5237928;28;20399;-75
2024/02/04 09:56:40;;;;;;;13.35;11.30;;;;;;;12.21;100.00;102181.59;5241111;28;20040;-80
2024/02/04 09:59:12;;;;;;;12.35;11.10;;;;;;;12.23;100.00;102182.31;5234981;28;20467;-77
2024/02/04 10:01:44;;;;;;;14.27;12.88;;;;;;;12.20;100.00;102175.50;5239982;28;20399;-81
2024/02/04 10:04:16;;;;;;;12.93;11.75;;;;;;;12.21;100.00;102181.59;5241822;28;20039;-76
2024/02/04 10:06:48;;;;;;;14.35;12.02;;;;;;;12.18;100.00;102190.53;5239249;28;20391;-75
2024/02/04 10:09:20;;;;;;;13.20;12.10;;;;;;;12.15;100.00;102180.22;5236431;28;20041;-76
2024/02/04 10:11:52;;;;;;;13.88;12.48;;;;;;;12.10;100.00;102190.22;5240712;28;20044;-75
2024/02/04 10:14:25;;;;;;;13.07;11.70;;;;;;;12.16;100.00;102205.56;5237249;28;20040;-76
2024/02/04 10:16:57;;;;;;;12.15;10.95;;;;;;;12.14;100.00;102197.78;5239363;28;20025;-76
2024/02/04 10:19:29;;;;;;;13.05;11.63;;;;;;;12.14;100.00;102199.56;5226340;22;20068;-82
2024/02/04 10:22:03;;;;;;;11.40;10.30;;;;;;;12.21;100.00;102200.84;5210955;28;20029;-82
2024/02/04 10:24:35;;;;;;;11.25;10.25;;;;;;;12.18;100.00;102191.38;5212558;28;20040;-82
2024/02/04 10:27:07;;;;;;;10.10;9.20;;;;;;;12.22;100.00;102185.91;5208808;28;20415;-82
2024/02/04 10:29:39;;;;;;;11.25;10.02;;;;;;;12.19;100.00;102186.94;5214939;28;20052;-82
2024/02/04 10:32:11;;;;;;;9.80;8.82;;;;;;;12.16;100.00;102187.19;5210389;28;20040;-82
2024/02/04 10:34:43;;;;;;;10.48;9.57;;;;;;;12.17;100.00;102196.75;5208373;28;20128;-81
2024/02/04 10:37:15;;;;;;;11.75;10.63;;;;;;;12.20;100.00;102193.91;5212177;28;20037;-81
2024/02/04 10:39:47;;;;;;;10.88;9.88;;;;;;;12.17;100.00;102196.75;5210591;28;20029;-82
2024/02/04 10:42:24;;;;;;;11.25;10.15;;;;;;;12.30;100.00;102199.34;5207114;28;20037;-81
2024/02/04 10:44:58;;;;;;;10.85;9.75;;;;;;;12.20;100.00;102196.53;5213383;28;20412;-81
2024/02/04 10:47:32;;;;;;;10.82;9.75;;;;;;;12.23;100.00;102201.53;5209456;28;20426;-81
2024/02/04 10:50:05;;;;;;;10.63;9.73;;;;;;;12.19;100.00;102207.97;5211867;28;20193;-82
2024/02/04 10:52:39;;;;;;;11.15;9.98;;;;;;;12.28;100.00;102203.88;5211467;28;20179;-81
2024/02/04 10:55:11;;;;;;;11.45;10.27;;;;;;;12.21;100.00;102187.69;5214982;28;20044;-82
2024/02/04 10:57:44;;;;;;;11.67;10.57;;;;;;;12.22;100.00;102189.38;5209997;28;20034;-81
2024/02/04 11:00:18;;;;;;;12.10;10.90;;;;;;;12.25;100.00;102197.03;5202681;28;20289;-81
2024/02/04 11:02:51;;;;;;;11.45;10.40;;;;;;;12.18;100.00;102178.22;5213418;28;20040;-81
2024/02/04 11:05:23;;;;;;;;;;;;;;;12.80;100.00;102176.47;5209676;28;20029;-82
2024/02/04 11:07:55;;;;;;;12.57;11.23;;;;;;;12.31;100.00;102193.13;5212716;28;19917;-81
2024/02/04 11:10:28;;;;;;;12.73;11.52;;;;;;;12.24;100.00;102184.03;5213193;28;20648;-81
2024/02/04 11:13:04;;;;;;;12.57;11.48;;;;;;;12.30;100.00;102184.41;5209035;28;20247;-82
2024/02/04 11:15:44;;;;;;;13.95;12.57;;;;;;;12.27;100.00;102189.03;5209712;28;20049;-81
2024/02/04 11:18:34;;;;;;;14.25;12.45;;;;;;;12.51;100.00;102181.22;5214875;28;20522;-82
2024/02/04 11:21:39;;;;;;;12.77;11.57;;;;;;;12.44;100.00;102164.19;5217220;28;20041;-81
2024/02/04 11:24:17;;;;;;;13.45;12.18;;;;;;;12.37;100.00;102174.31;5217775;28;20037;-82
2024/02/04 11:26:49;;;;;;;13.30;11.70;;;;;;;12.30;100.00;102157.28;5217026;28;20069;-82
2024/02/04 11:29:22;;;;;;;12.98;11.77;;;;;;;12.34;100.00;102162.22;5215794;28;20676;-81
2024/02/04 11:31:54;;;;;;;13.05;11.75;;;;;;;12.27;100.00;102154.88;5216905;28;20048;-81